sensor_id;sensor_type;location;lat;lon;timestamp;pressure;altitude;pressure_sealevel;temperature;humidity
48517;BME280;34310;51.904;4.256;2022-08-26T00:01:51;101761.69;;;26.82;56.62
48517;BME280;34310;51.904;4.256;2022-08-26T00:04:20;101759.03;;;26.82;56.74
48517;BME280;34310;51.904;4.256;2022-08-26T00:06:50;101771.34;;;26.79;56.92
48517;BME280;34310;51.904;4.256;2022-08-26T00:09:17;101763.38;;;26.77;56.95
48517;BME280;34310;51.904;4.256;2022-08-26T00:11:45;101766.03;;;26.79;56.79
48517;BME280;34310;51.904;4.256;2022-08-26T00:14:14;101766.91;;;26.78;56.80
48517;BME280;34310;51.904;4.256;2022-08-26T00:16:43;101758.97;;;26.78;57.00
48517;BME280;34310;51.904;4.256;2022-08-26T00:19:16;101752.78;;;26.77;56.84
48517;BME280;34310;51.904;4.256;2022-08-26T00:21:45;101757.19;;;26.77;56.84
48517;BME280;34310;51.904;4.256;2022-08-26T00:24:17;101751.88;;;26.77;56.82
48517;BME280;34310;51.904;4.256;2022-08-26T00:26:45;101756.25;;;26.75;57.19
48517;BME280;34310;51.904;4.256;2022-08-26T00:29:12;101757.13;;;26.74;56.64
48517;BME280;34310;51.904;4.256;2022-08-26T00:31:41;101765.06;;;26.74;56.98
48517;BME280;34310;51.904;4.256;2022-08-26T00:34:12;101764.19;;;26.73;56.84
48517;BME280;34310;51.904;4.256;2022-08-26T00:36:41;101755.31;;;26.71;57.00
48517;BME280;34310;51.904;4.256;2022-08-26T00:39:10;101755.31;;;26.71;56.77
48517;BME280;34310;51.904;4.256;2022-08-26T00:41:39;101757.94;;;26.70;56.96
48517;BME280;34310;51.904;4.256;2022-08-26T00:44:07;101754.34;;;26.68;56.92
48517;BME280;34310;51.904;4.256;2022-08-26T00:46:44;101754.38;;;26.69;57.03
48517;BME280;34310;51.904;4.256;2022-08-26T00:49:19;101748.16;;;26.67;57.20
48517;BME280;34310;51.904;4.256;2022-08-26T00:51:55;101750.81;;;26.67;57.13
48517;BME280;34310;51.904;4.256;2022-08-26T00:54:28;101750.81;;;26.67;56.82
48517;BME280;34310;51.904;4.256;2022-08-26T00:57:05;101749.00;;;26.65;56.86
48517;BME280;34310;51.904;4.256;2022-08-26T00:59:45;101749.91;;;26.65;57.15
48517;BME280;34310;51.904;4.256;2022-08-26T01:02:14;101746.34;;;26.65;56.91
48517;BME280;34310;51.904;4.256;2022-08-26T01:04:51;101746.31;;;26.63;57.10
48517;BME280;34310;51.904;4.256;2022-08-26T01:07:23;101748.09;;;26.63;56.91
48517;BME280;34310;51.904;4.256;2022-08-26T01:09:51;101751.59;;;26.62;57.02
48517;BME280;34310;51.904;4.256;2022-08-26T01:12:19;101751.56;;;26.60;57.11
48517;BME280;34310;51.904;4.256;2022-08-26T01:14:48;101750.63;;;26.58;57.33
48517;BME280;34310;51.904;4.256;2022-08-26T01:17:16;101746.22;;;26.59;56.93
48517;BME280;34310;51.904;4.256;2022-08-26T01:25:18;101750.59;;;26.57;57.16
48517;BME280;34310;51.904;4.256;2022-08-26T01:27:47;101755.84;;;26.55;57.09
48517;BME280;34310;51.904;4.256;2022-08-26T01:30:16;101754.06;;;26.54;57.16
48517;BME280;34310;51.904;4.256;2022-08-26T01:32:45;101756.72;;;26.54;57.10
48517;BME280;34310;51.904;4.256;2022-08-26T01:35:14;101753.16;;;26.52;57.39
48517;BME280;34310;51.904;4.256;2022-08-26T01:37:42;101754.94;;;26.53;57.18
48517;BME280;34310;51.904;4.256;2022-08-26T01:40:15;101749.59;;;26.51;57.39
48517;BME280;34310;51.904;4.256;2022-08-26T01:42:45;101753.16;;;26.52;57.31
48517;BME280;34310;51.904;4.256;2022-08-26T01:45:25;101761.09;;;26.52;57.38
48517;BME280;34310;51.904;4.256;2022-08-26T01:47:56;101759.28;;;26.49;57.38
48517;BME280;34310;51.904;4.256;2022-08-26T01:50:31;101760.13;;;26.48;57.57
48517;BME280;34310;51.904;4.256;2022-08-26T01:53:03;101765.44;;;26.48;57.34
48517;BME280;34310;51.904;4.256;2022-08-26T01:55:32;101763.69;;;26.49;57.21
48517;BME280;34310;51.904;4.256;2022-08-26T01:58:04;101768.94;;;26.47;57.31
48517;BME280;34310;51.904;4.256;2022-08-26T02:00:33;101763.63;;;26.46;57.56
48517;BME280;34310;51.904;4.256;2022-08-26T02:03:03;101762.72;;;26.45;57.26
48517;BME280;34310;51.904;4.256;2022-08-26T02:06:05;101767.09;;;26.43;57.44
48517;BME280;34310;51.904;4.256;2022-08-26T02:08:46;101767.13;;;26.45;57.37
48517;BME280;34310;51.904;4.256;2022-08-26T02:11:17;101774.19;;;26.44;57.26
48517;BME280;34310;51.904;4.256;2022-08-26T02:14:07;101766.22;;;26.43;57.26
48517;BME280;34310;51.904;4.256;2022-08-26T02:16:42;101775.00;;;26.40;57.14
48517;BME280;34310;51.904;4.256;2022-08-26T02:19:30;101774.88;;;26.34;56.90
48517;BME280;34310;51.904;4.256;2022-08-26T02:22:03;101774.00;;;26.35;57.08
48517;BME280;34310;51.904;4.256;2022-08-26T02:27:27;101778.47;;;26.38;57.01
48517;BME280;34310;51.904;4.256;2022-08-26T02:30:12;101780.25;;;26.39;57.26
48517;BME280;34310;51.904;4.256;2022-08-26T02:32:43;101774.00;;;26.35;57.27
48517;BME280;34310;51.904;4.256;2022-08-26T02:35:13;101777.53;;;26.36;57.18
48517;BME280;34310;51.904;4.256;2022-08-26T02:37:48;101779.28;;;26.34;57.27
48517;BME280;34310;51.904;4.256;2022-08-26T02:40:19;101779.19;;;26.32;57.33
48517;BME280;34310;51.904;4.256;2022-08-26T02:42:47;101782.75;;;26.33;57.38
48517;BME280;34310;51.904;4.256;2022-08-26T02:45:15;101780.06;;;26.31;57.56
48517;BME280;34310;51.904;4.256;2022-08-26T02:47:50;101775.59;;;26.30;57.40
48517;BME280;34310;51.904;4.256;2022-08-26T02:50:19;101766.75;;;26.30;57.65
48517;BME280;34310;51.904;4.256;2022-08-26T02:52:46;101774.66;;;26.28;57.24
48517;BME280;34310;51.904;4.256;2022-08-26T02:55:15;101767.63;;;26.29;57.23
48517;BME280;34310;51.904;4.256;2022-08-26T02:57:43;101762.31;;;26.29;57.38
48517;BME280;34310;51.904;4.256;2022-08-26T03:00:12;101754.38;;;26.29;57.38
48517;BME280;34310;51.904;4.256;2022-08-26T03:02:41;101755.19;;;26.24;57.53
48517;BME280;34310;51.904;4.256;2022-08-26T03:05:09;101749.03;;;26.25;57.56
48517;BME280;34310;51.904;4.256;2022-08-26T03:07:37;101756.06;;;26.25;57.67
48517;BME280;34310;51.904;4.256;2022-08-26T03:10:06;101754.28;;;26.24;57.62
48517;BME280;34310;51.904;4.256;2022-08-26T03:12:35;101754.25;;;26.22;57.69
48517;BME280;34310;51.904;4.256;2022-08-26T03:15:03;101762.22;;;26.24;57.48
48517;BME280;34310;51.904;4.256;2022-08-26T03:17:47;101755.13;;;26.21;57.76
48517;BME280;34310;51.904;4.256;2022-08-26T03:20:16;101762.19;;;26.21;57.41
48517;BME280;34310;51.904;4.256;2022-08-26T03:22:45;101756.00;;;26.20;57.68
48517;BME280;34310;51.904;4.256;2022-08-26T03:25:14;101763.94;;;26.20;57.62
48517;BME280;34310;51.904;4.256;2022-08-26T03:27:42;101750.66;;;26.19;57.70
48517;BME280;34310;51.904;4.256;2022-08-26T03:30:11;101751.53;;;26.18;57.47
48517;BME280;34310;51.904;4.256;2022-08-26T03:32:59;101733.84;;;26.17;57.52
48517;BME280;34310;51.904;4.256;2022-08-26T03:35:27;101742.69;;;26.17;57.59
48517;BME280;34310;51.904;4.256;2022-08-26T03:37:54;101740.91;;;26.16;57.57
48517;BME280;34310;51.904;4.256;2022-08-26T03:40:22;101741.75;;;26.15;57.71
48517;BME280;34310;51.904;4.256;2022-08-26T03:42:55;101743.56;;;26.16;57.61
48517;BME280;34310;51.904;4.256;2022-08-26T03:45:22;101747.03;;;26.14;57.64
48517;BME280;34310;51.904;4.256;2022-08-26T03:47:50;101747.03;;;26.14;57.55
48517;BME280;34310;51.904;4.256;2022-08-26T03:50:21;101754.06;;;26.13;57.74
48517;BME280;34310;51.904;4.256;2022-08-26T03:52:51;101754.97;;;26.14;57.77
48517;BME280;34310;51.904;4.256;2022-08-26T03:55:23;101758.44;;;26.11;57.92
48517;BME280;34310;51.904;4.256;2022-08-26T03:57:53;101748.69;;;26.09;57.79
48517;BME280;34310;51.904;4.256;2022-08-26T04:00:21;101747.81;;;26.10;57.61
48517;BME280;34310;51.904;4.256;2022-08-26T04:02:50;101743.44;;;26.10;57.64
48517;BME280;34310;51.904;4.256;2022-08-26T04:05:20;101743.41;;;26.09;57.79
48517;BME280;34310;51.904;4.256;2022-08-26T04:07:49;101750.44;;;26.08;57.76
48517;BME280;34310;51.904;4.256;2022-08-26T04:10:17;101740.75;;;26.09;57.91
48517;BME280;34310;51.904;4.256;2022-08-26T04:12:46;101746.88;;;26.06;57.76
48517;BME280;34310;51.904;4.256;2022-08-26T04:15:14;101745.13;;;26.07;57.85
48517;BME280;34310;51.904;4.256;2022-08-26T04:17:43;101746.88;;;26.06;58.02
48517;BME280;34310;51.904;4.256;2022-08-26T04:20:13;101745.13;;;26.07;58.07
48517;BME280;34310;51.904;4.256;2022-08-26T04:22:44;101746.84;;;26.05;57.96
48517;BME280;34310;51.904;4.256;2022-08-26T04:25:12;101745.91;;;26.03;57.99
48517;BME280;34310;51.904;4.256;2022-08-26T04:27:39;101749.44;;;26.03;57.94
48517;BME280;34310;51.904;4.256;2022-08-26T04:30:07;101752.09;;;26.03;57.97
48517;BME280;34310;51.904;4.256;2022-08-26T04:32:35;101749.38;;;26.02;58.10
48517;BME280;34310;51.904;4.256;2022-08-26T04:35:04;101748.50;;;26.01;57.89
48517;BME280;34310;51.904;4.256;2022-08-26T04:37:32;101757.31;;;26.02;58.21
48517;BME280;34310;51.904;4.256;2022-08-26T04:40:00;101747.59;;;26.01;58.06
48517;BME280;34310;51.904;4.256;2022-08-26T04:42:27;101751.09;;;26.00;58.01
48517;BME280;34310;51.904;4.256;2022-08-26T04:44:56;101747.59;;;26.01;58.00
48517;BME280;34310;51.904;4.256;2022-08-26T04:47:23;101747.56;;;25.99;58.12
48517;BME280;34310;51.904;4.256;2022-08-26T04:49:56;101751.97;;;25.99;58.05
48517;BME280;34310;51.904;4.256;2022-08-26T04:52:24;101750.19;;;25.98;58.01
48517;BME280;34310;51.904;4.256;2022-08-26T04:54:54;101750.19;;;25.98;58.17
48517;BME280;34310;51.904;4.256;2022-08-26T04:57:21;101756.34;;;25.97;58.20
48517;BME280;34310;51.904;4.256;2022-08-26T04:59:49;101758.09;;;25.96;58.10
48517;BME280;34310;51.904;4.256;2022-08-26T05:02:16;101759.84;;;25.96;58.01
48517;BME280;34310;51.904;4.256;2022-08-26T05:04:44;101763.34;;;25.94;58.08
48517;BME280;34310;51.904;4.256;2022-08-26T05:07:11;101767.75;;;25.94;58.03
48517;BME280;34310;51.904;4.256;2022-08-26T05:09:40;101774.81;;;25.95;57.93
48517;BME280;34310;51.904;4.256;2022-08-26T05:12:07;101767.78;;;25.96;57.74
48517;BME280;34310;51.904;4.256;2022-08-26T05:14:35;101760.69;;;25.94;58.04
48517;BME280;34310;51.904;4.256;2022-08-26T05:17:03;101758.94;;;25.95;57.95
48517;BME280;34310;51.904;4.256;2022-08-26T05:19:31;101757.13;;;25.92;57.89
48517;BME280;34310;51.904;4.256;2022-08-26T05:21:58;101755.34;;;25.91;58.17
48517;BME280;34310;51.904;4.256;2022-08-26T05:24:26;101757.13;;;25.92;57.88
48517;BME280;34310;51.904;4.256;2022-08-26T05:26:53;101767.69;;;25.91;57.80
48517;BME280;34310;51.904;4.256;2022-08-26T05:29:22;101765.91;;;25.90;57.81
48517;BME280;34310;51.904;4.256;2022-08-26T05:31:51;101772.09;;;25.90;57.90
48517;BME280;34310;51.904;4.256;2022-08-26T05:34:22;101780.88;;;25.89;57.99
48517;BME280;34310;51.904;4.256;2022-08-26T05:36:51;101780.84;;;25.88;56.19
48517;BME280;34310;51.904;4.256;2022-08-26T05:39:20;101779.88;;;25.84;54.90
48517;BME280;34310;51.904;4.256;2022-08-26T05:41:49;101785.09;;;25.81;56.27
48517;BME280;34310;51.904;4.256;2022-08-26T05:44:17;101790.44;;;25.83;56.51
48517;BME280;34310;51.904;4.256;2022-08-26T05:46:48;101786.00;;;25.82;56.95
48517;BME280;34310;51.904;4.256;2022-08-26T05:49:17;101785.06;;;25.80;57.02
48517;BME280;34310;51.904;4.256;2022-08-26T05:51:45;101786.81;;;25.79;57.15
48517;BME280;34310;51.904;4.256;2022-08-26T05:54:14;101789.47;;;25.79;57.33
48517;BME280;34310;51.904;4.256;2022-08-26T05:56:49;101790.34;;;25.80;57.05
48517;BME280;34310;51.904;4.256;2022-08-26T05:59:17;101795.66;;;25.80;57.28
48517;BME280;34310;51.904;4.256;2022-08-26T06:01:51;101803.59;;;25.80;57.19
48517;BME280;34310;51.904;4.256;2022-08-26T06:04:21;101797.41;;;25.79;57.58
48517;BME280;34310;51.904;4.256;2022-08-26T06:06:52;101800.94;;;25.80;57.53
48517;BME280;34310;51.904;4.256;2022-08-26T06:09:20;101800.06;;;25.79;57.45
48517;BME280;34310;51.904;4.256;2022-08-26T06:11:47;101792.97;;;25.78;57.47
48517;BME280;34310;51.904;4.256;2022-08-26T06:14:15;101803.59;;;25.80;57.63
48517;BME280;34310;51.904;4.256;2022-08-26T06:16:44;101800.94;;;25.80;57.24
48517;BME280;34310;51.904;4.256;2022-08-26T06:19:13;101795.63;;;25.78;57.85
48517;BME280;34310;51.904;4.256;2022-08-26T06:21:45;101807.13;;;25.80;57.99
48517;BME280;34310;51.904;4.256;2022-08-26T06:24:17;101814.16;;;25.80;57.80
48517;BME280;34310;51.904;4.256;2022-08-26T06:27:05;101809.75;;;25.79;57.91
48517;BME280;34310;51.904;4.256;2022-08-26T06:29:37;101815.88;;;25.78;57.90
48517;BME280;34310;51.904;4.256;2022-08-26T06:32:04;101815.91;;;25.79;57.69
48517;BME280;34310;51.904;4.256;2022-08-26T06:34:32;101817.66;;;25.79;57.57
48517;BME280;34310;51.904;4.256;2022-08-26T06:37:00;101817.66;;;25.79;57.83
48517;BME280;34310;51.904;4.256;2022-08-26T06:39:30;101816.78;;;25.78;57.55
48517;BME280;34310;51.904;4.256;2022-08-26T06:41:58;101823.84;;;25.79;57.72
48517;BME280;34310;51.904;4.256;2022-08-26T06:44:26;101833.50;;;25.77;57.75
48517;BME280;34310;51.904;4.256;2022-08-26T06:46:54;101830.88;;;25.77;57.91
48517;BME280;34310;51.904;4.256;2022-08-26T06:49:21;101839.66;;;25.76;57.34
48517;BME280;34310;51.904;4.256;2022-08-26T06:51:54;101839.69;;;25.78;57.82
48517;BME280;34310;51.904;4.256;2022-08-26T06:54:25;101843.19;;;25.77;57.55
48517;BME280;34310;51.904;4.256;2022-08-26T06:56:53;101833.50;;;25.77;57.88
48517;BME280;34310;51.904;4.256;2022-08-26T06:59:23;101835.25;;;25.77;57.84
48517;BME280;34310;51.904;4.256;2022-08-26T07:01:50;101831.75;;;25.78;57.52
48517;BME280;34310;51.904;4.256;2022-08-26T07:04:19;101834.44;;;25.79;57.45
48517;BME280;34310;51.904;4.256;2022-08-26T07:06:50;101843.22;;;25.78;57.72
48517;BME280;34310;51.904;4.256;2022-08-26T07:09:21;101840.59;;;25.78;57.72
48517;BME280;34310;51.904;4.256;2022-08-26T07:11:49;101853.81;;;25.78;57.76
48517;BME280;34310;51.904;4.256;2022-08-26T07:14:18;101848.53;;;25.78;57.68
48517;BME280;34310;51.904;4.256;2022-08-26T07:16:48;101848.53;;;25.78;57.37
48517;BME280;34310;51.904;4.256;2022-08-26T07:19:20;101851.13;;;25.77;57.63
48517;BME280;34310;51.904;4.256;2022-08-26T07:21:59;101865.25;;;25.77;57.72
48517;BME280;34310;51.904;4.256;2022-08-26T07:24:28;101864.38;;;25.77;57.69
48517;BME280;34310;51.904;4.256;2022-08-26T07:27:04;101866.97;;;25.75;57.90
48517;BME280;34310;51.904;4.256;2022-08-26T07:29:32;101867.88;;;25.76;57.62
48517;BME280;34310;51.904;4.256;2022-08-26T07:32:00;101872.25;;;25.75;57.93
48517;BME280;34310;51.904;4.256;2022-08-26T07:34:28;101864.31;;;25.75;57.56
48517;BME280;34310;51.904;4.256;2022-08-26T07:36:59;101867.88;;;25.76;56.78
48517;BME280;34310;51.904;4.256;2022-08-26T07:39:27;101875.84;;;25.77;57.91
48517;BME280;34310;51.904;4.256;2022-08-26T07:42:01;101867.88;;;25.76;57.68
48517;BME280;34310;51.904;4.256;2022-08-26T07:44:35;101867.00;;;25.77;57.73
48517;BME280;34310;51.904;4.256;2022-08-26T07:47:02;101871.44;;;25.78;57.25
48517;BME280;34310;51.904;4.256;2022-08-26T07:49:36;101872.34;;;25.78;57.41
48517;BME280;34310;51.904;4.256;2022-08-26T07:52:05;101879.41;;;25.79;57.23
48517;BME280;34310;51.904;4.256;2022-08-26T07:54:32;101884.75;;;25.81;57.00
48517;BME280;34310;51.904;4.256;2022-08-26T07:57:00;101884.75;;;25.81;57.38
48517;BME280;34310;51.904;4.256;2022-08-26T07:59:31;101883.84;;;25.80;57.43
48517;BME280;34310;51.904;4.256;2022-08-26T08:01:58;101881.19;;;25.80;57.38
48517;BME280;34310;51.904;4.256;2022-08-26T08:04:26;101881.25;;;25.82;57.09
48517;BME280;34310;51.904;4.256;2022-08-26T08:06:54;101884.78;;;25.82;57.30
48517;BME280;34310;51.904;4.256;2022-08-26T08:09:22;101888.31;;;25.83;57.12
48517;BME280;34310;51.904;4.256;2022-08-26T08:11:51;101886.56;;;25.83;56.89
48517;BME280;34310;51.904;4.256;2022-08-26T08:14:19;101890.97;;;25.83;57.04
48517;BME280;34310;51.904;4.256;2022-08-26T08:16:48;101898.94;;;25.84;57.29
48517;BME280;34310;51.904;4.256;2022-08-26T08:19:21;101889.22;;;25.83;57.13
48517;BME280;34310;51.904;4.256;2022-08-26T08:21:49;101898.03;;;25.84;56.92
48517;BME280;34310;51.904;4.256;2022-08-26T08:24:18;101895.41;;;25.84;57.00
48517;BME280;34310;51.904;4.256;2022-08-26T08:26:46;101901.59;;;25.84;56.81
48517;BME280;34310;51.904;4.256;2022-08-26T08:29:13;101896.31;;;25.86;56.92
48517;BME280;34310;51.904;4.256;2022-08-26T08:31:41;101899.00;;;25.87;57.06
48517;BME280;34310;51.904;4.256;2022-08-26T08:34:26;101891.03;;;25.86;56.62
48517;BME280;34310;51.904;4.256;2022-08-26T08:36:55;101887.56;;;25.88;56.85
48517;BME280;34310;51.904;4.256;2022-08-26T08:39:24;101903.47;;;25.90;56.32
48517;BME280;34310;51.904;4.256;2022-08-26T08:44:40;101891.22;;;25.93;56.31
48517;BME280;34310;51.904;4.256;2022-08-26T08:47:31;101893.00;;;25.94;56.26
48517;BME280;34310;51.904;4.256;2022-08-26T08:50:48;101882.47;;;25.96;56.36
48517;BME280;34310;51.904;4.256;2022-08-26T08:55:29;101887.81;;;25.99;56.26
48517;BME280;34310;51.904;4.256;2022-08-26T08:58:05;101895.75;;;25.99;56.47
48517;BME280;34310;51.904;4.256;2022-08-26T09:00:53;101894.03;;;26.01;56.10
48517;BME280;34310;51.904;4.256;2022-08-26T09:06:17;101891.41;;;26.01;56.17
48517;BME280;34310;51.904;4.256;2022-08-26T09:08:48;101892.28;;;26.02;56.44
48517;BME280;34310;51.904;4.256;2022-08-26T09:11:18;101881.66;;;26.00;56.56
48517;BME280;34310;51.904;4.256;2022-08-26T09:13:52;101895.75;;;25.99;55.87
48517;BME280;34310;51.904;4.256;2022-08-26T09:19:08;101904.56;;;25.98;56.66
48517;BME280;34310;51.904;4.256;2022-08-26T09:21:44;101900.94;;;25.94;56.09
48517;BME280;34310;51.904;4.256;2022-08-26T09:24:12;101919.50;;;25.96;56.37
48517;BME280;34310;51.904;4.256;2022-08-26T09:26:44;101912.47;;;25.97;56.65
48517;BME280;34310;51.904;4.256;2022-08-26T09:29:23;101917.75;;;25.97;56.59
48517;BME280;34310;51.904;4.256;2022-08-26T09:35:05;101911.56;;;25.96;56.54
48517;BME280;34310;51.904;4.256;2022-08-26T09:37:38;101909.81;;;25.97;56.33
48517;BME280;34310;51.904;4.256;2022-08-26T09:42:43;101903.66;;;25.98;56.14
48517;BME280;34310;51.904;4.256;2022-08-26T09:45:12;101907.25;;;26.00;56.33
48517;BME280;34310;51.904;4.256;2022-08-26T09:47:52;101909.94;;;26.01;56.26
48517;BME280;34310;51.904;4.256;2022-08-26T09:50:30;101901.16;;;26.02;56.18
48517;BME280;34310;51.904;4.256;2022-08-26T09:53:22;101902.94;;;26.03;55.85
48517;BME280;34310;51.904;4.256;2022-08-26T09:56:15;101908.28;;;26.05;56.00
48517;BME280;34310;51.904;4.256;2022-08-26T09:58:45;101899.44;;;26.04;55.71
48517;BME280;34310;51.904;4.256;2022-08-26T10:03:50;101910.97;;;26.06;56.07
48517;BME280;34310;51.904;4.256;2022-08-26T10:06:22;101900.41;;;26.08;55.86
48517;BME280;34310;51.904;4.256;2022-08-26T10:08:56;101901.31;;;26.08;55.58
48517;BME280;34310;51.904;4.256;2022-08-26T10:11:35;101904.88;;;26.10;55.55
48517;BME280;34310;51.904;4.256;2022-08-26T10:16:55;101909.28;;;26.10;55.82
48517;BME280;34310;51.904;4.256;2022-08-26T10:19:38;101911.88;;;26.08;56.07
48517;BME280;34310;51.904;4.256;2022-08-26T10:22:53;101914.50;;;26.07;55.96
48517;BME280;34310;51.904;4.256;2022-08-26T10:25:32;101909.22;;;26.07;56.17
48517;BME280;34310;51.904;4.256;2022-08-26T10:31:11;101909.22;;;26.07;55.85
48517;BME280;34310;51.904;4.256;2022-08-26T10:33:46;101916.28;;;26.08;55.84
48517;BME280;34310;51.904;4.256;2022-08-26T10:36:17;101920.75;;;26.10;55.58
48517;BME280;34310;51.904;4.256;2022-08-26T10:42:41;101913.72;;;26.11;55.62
48517;BME280;34310;51.904;4.256;2022-08-26T10:45:16;101913.72;;;26.11;55.51
48517;BME280;34310;51.904;4.256;2022-08-26T10:50:51;101915.47;;;26.10;55.78
48517;BME280;34310;51.904;4.256;2022-08-26T10:56:31;101919.03;;;26.12;55.73
48517;BME280;34310;51.904;4.256;2022-08-26T10:59:25;101921.66;;;26.11;55.42
48517;BME280;34310;51.904;4.256;2022-08-26T11:04:59;101918.97;;;26.09;55.64
48517;BME280;34310;51.904;4.256;2022-08-26T11:07:37;101919.00;;;26.11;55.44
48517;BME280;34310;51.904;4.256;2022-08-26T11:17:58;101925.22;;;26.13;55.46
48517;BME280;34310;51.904;4.256;2022-08-26T11:20:39;101921.72;;;26.14;55.33
48517;BME280;34310;51.904;4.256;2022-08-26T11:28:44;101926.09;;;26.12;55.48
48517;BME280;34310;51.904;4.256;2022-08-26T11:34:04;101921.69;;;26.12;55.41
48517;BME280;34310;51.904;4.256;2022-08-26T11:39:31;101922.59;;;26.13;55.43
48517;BME280;34310;51.904;4.256;2022-08-26T11:44:46;101927.03;;;26.14;55.64
48517;BME280;34310;51.904;4.256;2022-08-26T11:47:24;101918.16;;;26.12;55.41
48517;BME280;34310;51.904;4.256;2022-08-26T11:50:14;101917.28;;;26.13;55.63
48517;BME280;34310;51.904;4.256;2022-08-26T11:52:51;101920.84;;;26.13;55.57
48517;BME280;34310;51.904;4.256;2022-08-26T11:55:19;101917.25;;;26.11;55.66
48517;BME280;34310;51.904;4.256;2022-08-26T11:57:52;101915.50;;;26.12;55.43
48517;BME280;34310;51.904;4.256;2022-08-26T12:00:27;101914.69;;;26.14;55.48
48517;BME280;34310;51.904;4.256;2022-08-26T12:03:03;101911.16;;;26.15;55.38
48517;BME280;34310;51.904;4.256;2022-08-26T12:05:41;101914.75;;;26.17;55.31
48517;BME280;34310;51.904;4.256;2022-08-26T12:08:13;101909.44;;;26.17;55.42
48517;BME280;34310;51.904;4.256;2022-08-26T12:10:42;101907.69;;;26.18;55.31
48517;BME280;34310;51.904;4.256;2022-08-26T12:13:21;101908.59;;;26.18;55.49
48517;BME280;34310;51.904;4.256;2022-08-26T12:15:56;101906.84;;;26.19;55.52
48517;BME280;34310;51.904;4.256;2022-08-26T12:18:28;101908.53;;;26.15;55.59
48517;BME280;34310;51.904;4.256;2022-08-26T12:20:59;101910.28;;;26.15;55.51
48517;BME280;34310;51.904;4.256;2022-08-26T12:23:38;101907.59;;;26.13;55.52
48517;BME280;34310;51.904;4.256;2022-08-26T12:26:29;101912.88;;;26.13;55.28
48517;BME280;34310;51.904;4.256;2022-08-26T12:29:03;101907.59;;;26.13;55.61
48517;BME280;34310;51.904;4.256;2022-08-26T12:31:46;101915.53;;;26.13;55.70
48517;BME280;34310;51.904;4.256;2022-08-26T12:34:15;101912.84;;;26.12;55.53
48517;BME280;34310;51.904;4.256;2022-08-26T12:36:51;101919.94;;;26.13;55.68
48517;BME280;34310;51.904;4.256;2022-08-26T12:39:34;101913.75;;;26.12;55.58
48517;BME280;34310;51.904;4.256;2022-08-26T12:42:20;101911.09;;;26.12;55.77
48517;BME280;34310;51.904;4.256;2022-08-26T12:45:03;101917.28;;;26.13;55.56
48517;BME280;34310;51.904;4.256;2022-08-26T12:47:43;101919.94;;;26.13;55.41
48517;BME280;34310;51.904;4.256;2022-08-26T12:50:18;101919.94;;;26.13;55.43
48517;BME280;34310;51.904;4.256;2022-08-26T12:52:59;101912.88;;;26.13;55.13
48517;BME280;34310;51.904;4.256;2022-08-26T12:55:35;101908.50;;;26.14;55.45
48517;BME280;34310;51.904;4.256;2022-08-26T13:00:39;101919.13;;;26.15;55.52
48517;BME280;34310;51.904;4.256;2022-08-26T13:09:01;101913.78;;;26.14;55.47
48517;BME280;34310;51.904;4.256;2022-08-26T13:14:22;101908.50;;;26.14;55.52
48517;BME280;34310;51.904;4.256;2022-08-26T13:16:51;101911.13;;;26.14;55.41
48517;BME280;34310;51.904;4.256;2022-08-26T13:19:23;101912.94;;;26.15;55.35
48517;BME280;34310;51.904;4.256;2022-08-26T13:21:56;101918.19;;;26.13;55.29
48517;BME280;34310;51.904;4.256;2022-08-26T13:26:51;101919.94;;;26.13;55.64
48517;BME280;34310;51.904;4.256;2022-08-26T13:29:19;101922.59;;;26.13;55.41
48517;BME280;34310;51.904;4.256;2022-08-26T13:31:47;101920.84;;;26.13;55.52
48517;BME280;34310;51.904;4.256;2022-08-26T13:34:17;101926.16;;;26.15;55.49
48517;BME280;34310;51.904;4.256;2022-08-26T13:36:47;101922.63;;;26.14;55.43
48517;BME280;34310;51.904;4.256;2022-08-26T13:39:15;101915.56;;;26.15;55.39
48517;BME280;34310;51.904;4.256;2022-08-26T13:41:44;101917.34;;;26.16;55.39
48517;BME280;34310;51.904;4.256;2022-08-26T13:44:12;101910.31;;;26.16;55.21
48517;BME280;34310;51.904;4.256;2022-08-26T13:46:40;101910.34;;;26.18;55.13
48517;BME280;34310;51.904;4.256;2022-08-26T13:49:07;101913.03;;;26.19;55.27
48517;BME280;34310;51.904;4.256;2022-08-26T13:51:35;101906.91;;;26.22;55.14
48517;BME280;34310;51.904;4.256;2022-08-26T13:54:04;101913.25;;;26.29;54.95
48517;BME280;34310;51.904;4.256;2022-08-26T13:56:32;101915.09;;;26.31;54.67
48517;BME280;34310;51.904;4.256;2022-08-26T13:59:00;101909.81;;;26.31;54.72
48517;BME280;34310;51.904;4.256;2022-08-26T14:01:29;101908.94;;;26.32;54.79
48517;BME280;34310;51.904;4.256;2022-08-26T14:03:57;101906.41;;;26.35;54.84
48517;BME280;34310;51.904;4.256;2022-08-26T14:06:25;101906.53;;;26.41;54.64
48517;BME280;34310;51.904;4.256;2022-08-26T14:08:52;101904.97;;;26.51;54.18
48517;BME280;34310;51.904;4.256;2022-08-26T14:11:20;101906.00;;;26.58;54.19
48517;BME280;34310;51.904;4.256;2022-08-26T14:13:48;101901.59;;;26.58;54.04
48517;BME280;34310;51.904;4.256;2022-08-26T14:16:30;101898.19;;;26.62;53.71
48517;BME280;34310;51.904;4.256;2022-08-26T14:19:00;101892.91;;;26.64;53.83
48517;BME280;34310;51.904;4.256;2022-08-26T14:21:31;101892.84;;;26.61;53.98
48517;BME280;34310;51.904;4.256;2022-08-26T14:23:59;101893.69;;;26.60;54.03
48517;BME280;34310;51.904;4.256;2022-08-26T14:26:27;101898.91;;;26.57;54.21
48517;BME280;34310;51.904;4.256;2022-08-26T14:29:00;101897.09;;;26.54;54.03
48517;BME280;34310;51.904;4.256;2022-08-26T14:31:30;101899.72;;;26.52;54.36
48517;BME280;34310;51.904;4.256;2022-08-26T14:34:02;101895.28;;;26.51;54.43
48517;BME280;34310;51.904;4.256;2022-08-26T14:36:30;101899.66;;;26.49;54.51